sensor_id;sensor_type;location;lat;lon;timestamp;temperature;humidity
54178;DHT22;40085;53.004;6.770;2023-11-22T00:52:48;2.90;99.90
54178;DHT22;40085;53.004;6.770;2023-11-22T00:55:13;2.90;99.90
54178;DHT22;40085;53.004;6.770;2023-11-22T00:57:39;2.80;99.90
54178;DHT22;40085;53.004;6.770;2023-11-22T01:00:06;2.70;99.90
54178;DHT22;40085;53.004;6.770;2023-11-22T01:02:36;2.70;99.90
54178;DHT22;40085;53.004;6.770;2023-11-22T01:05:08;2.70;99.90
54178;DHT22;40085;53.004;6.770;2023-11-22T01:07:37;2.70;99.90
54178;DHT22;40085;53.004;6.770;2023-11-22T01:10:04;2.60;99.90
54178;DHT22;40085;53.004;6.770;2023-11-22T01:12:31;2.60;99.90
54178;DHT22;40085;53.004;6.770;2023-11-22T01:14:56;2.60;99.90
54178;DHT22;40085;53.004;6.770;2023-11-22T01:17:22;2.60;99.90
54178;DHT22;40085;53.004;6.770;2023-11-22T01:19:49;2.60;99.90
54178;DHT22;40085;53.004;6.770;2023-11-22T01:22:16;2.60;99.90
54178;DHT22;40085;53.004;6.770;2023-11-22T01:24:42;2.50;99.90
54178;DHT22;40085;53.004;6.770;2023-11-22T01:27:08;2.60;99.90
54178;DHT22;40085;53.004;6.770;2023-11-22T01:29:34;2.50;99.90
54178;DHT22;40085;53.004;6.770;2023-11-22T01:32:00;2.50;99.90
54178;DHT22;40085;53.004;6.770;2023-11-22T01:34:26;2.50;99.90
54178;DHT22;40085;53.004;6.770;2023-11-22T01:36:52;2.50;99.90
54178;DHT22;40085;53.004;6.770;2023-11-22T01:39:17;2.50;99.90
54178;DHT22;40085;53.004;6.770;2023-11-22T01:41:46;2.40;99.90
54178;DHT22;40085;53.004;6.770;2023-11-22T01:44:15;2.30;99.90
54178;DHT22;40085;53.004;6.770;2023-11-22T01:46:42;2.30;99.90
54178;DHT22;40085;53.004;6.770;2023-11-22T01:49:10;2.30;99.90
54178;DHT22;40085;53.004;6.770;2023-11-22T01:51:39;2.30;99.90
54178;DHT22;40085;53.004;6.770;2023-11-22T01:54:08;2.20;99.90
54178;DHT22;40085;53.004;6.770;2023-11-22T01:56:36;2.30;99.90
54178;DHT22;40085;53.004;6.770;2023-11-22T01:59:04;2.20;99.90
54178;DHT22;40085;53.004;6.770;2023-11-22T02:01:30;2.30;99.90
54178;DHT22;40085;53.004;6.770;2023-11-22T02:03:56;2.20;99.90
54178;DHT22;40085;53.004;6.770;2023-11-22T02:06:22;2.20;99.90
54178;DHT22;40085;53.004;6.770;2023-11-22T02:08:48;2.20;99.90
54178;DHT22;40085;53.004;6.770;2023-11-22T02:11:17;2.20;99.90
54178;DHT22;40085;53.004;6.770;2023-11-22T02:13:50;2.10;99.90
54178;DHT22;40085;53.004;6.770;2023-11-22T02:16:16;2.00;99.90
54178;DHT22;40085;53.004;6.770;2023-11-22T02:18:44;2.00;99.90
54178;DHT22;40085;53.004;6.770;2023-11-22T02:21:10;2.00;99.90
54178;DHT22;40085;53.004;6.770;2023-11-22T02:23:36;2.00;99.90
54178;DHT22;40085;53.004;6.770;2023-11-22T02:26:02;2.00;99.90
54178;DHT22;40085;53.004;6.770;2023-11-22T02:28:28;1.90;99.90
54178;DHT22;40085;53.004;6.770;2023-11-22T02:30:53;1.90;99.90
54178;DHT22;40085;53.004;6.770;2023-11-22T02:33:20;1.90;99.90
54178;DHT22;40085;53.004;6.770;2023-11-22T02:35:45;1.90;99.90
54178;DHT22;40085;53.004;6.770;2023-11-22T02:38:11;1.90;99.90
54178;DHT22;40085;53.004;6.770;2023-11-22T02:40:37;1.90;99.90
54178;DHT22;40085;53.004;6.770;2023-11-22T02:43:03;1.80;99.90
54178;DHT22;40085;53.004;6.770;2023-11-22T02:45:33;1.80;99.90
54178;DHT22;40085;53.004;6.770;2023-11-22T02:47:59;1.80;99.90
54178;DHT22;40085;53.004;6.770;2023-11-22T02:50:27;1.70;99.90
54178;DHT22;40085;53.004;6.770;2023-11-22T02:52:53;1.70;99.90
54178;DHT22;40085;53.004;6.770;2023-11-22T02:55:19;1.70;99.90
54178;DHT22;40085;53.004;6.770;2023-11-22T02:57:45;1.70;99.90
54178;DHT22;40085;53.004;6.770;2023-11-22T03:00:11;1.70;99.90
54178;DHT22;40085;53.004;6.770;2023-11-22T03:02:41;1.60;99.90
54178;DHT22;40085;53.004;6.770;2023-11-22T03:05:08;1.60;99.90
54178;DHT22;40085;53.004;6.770;2023-11-22T03:07:35;1.60;99.90
54178;DHT22;40085;53.004;6.770;2023-11-22T03:10:02;1.60;99.90
54178;DHT22;40085;53.004;6.770;2023-11-22T03:12:27;1.50;99.90
54178;DHT22;40085;53.004;6.770;2023-11-22T03:14:53;1.60;99.90
54178;DHT22;40085;53.004;6.770;2023-11-22T03:17:24;1.60;99.90
54178;DHT22;40085;53.004;6.770;2023-11-22T03:19:49;1.50;99.90
54178;DHT22;40085;53.004;6.770;2023-11-22T03:22:15;1.50;99.90
54178;DHT22;40085;53.004;6.770;2023-11-22T03:24:41;1.50;99.90
54178;DHT22;40085;53.004;6.770;2023-11-22T03:27:06;1.50;99.90
54178;DHT22;40085;53.004;6.770;2023-11-22T03:29:32;1.60;99.90
54178;DHT22;40085;53.004;6.770;2023-11-22T03:31:59;1.50;99.90
54178;DHT22;40085;53.004;6.770;2023-11-22T03:34:24;1.50;99.90
54178;DHT22;40085;53.004;6.770;2023-11-22T03:36:50;1.60;99.90
54178;DHT22;40085;53.004;6.770;2023-11-22T03:39:16;1.60;99.90
54178;DHT22;40085;53.004;6.770;2023-11-22T03:41:42;1.60;99.90
54178;DHT22;40085;53.004;6.770;2023-11-22T03:44:08;1.60;99.90
54178;DHT22;40085;53.004;6.770;2023-11-22T03:46:38;1.60;99.90
54178;DHT22;40085;53.004;6.770;2023-11-22T03:49:04;1.50;99.90
54178;DHT22;40085;53.004;6.770;2023-11-22T03:51:32;1.60;99.90
54178;DHT22;40085;53.004;6.770;2023-11-22T03:53:57;1.60;99.90
54178;DHT22;40085;53.004;6.770;2023-11-22T03:56:23;1.60;99.90
54178;DHT22;40085;53.004;6.770;2023-11-22T03:58:48;1.60;99.90
54178;DHT22;40085;53.004;6.770;2023-11-22T04:01:14;1.50;99.90
54178;DHT22;40085;53.004;6.770;2023-11-22T04:03:41;1.50;99.90
54178;DHT22;40085;53.004;6.770;2023-11-22T04:06:07;1.50;99.90
54178;DHT22;40085;53.004;6.770;2023-11-22T04:08:33;1.40;99.90
54178;DHT22;40085;53.004;6.770;2023-11-22T04:10:58;1.60;99.90
54178;DHT22;40085;53.004;6.770;2023-11-22T04:13:24;1.50;99.90
54178;DHT22;40085;53.004;6.770;2023-11-22T04:15:51;1.40;99.90
54178;DHT22;40085;53.004;6.770;2023-11-22T04:18:16;1.40;99.90
54178;DHT22;40085;53.004;6.770;2023-11-22T04:20:42;1.40;99.90
54178;DHT22;40085;53.004;6.770;2023-11-22T04:23:07;1.40;99.90
54178;DHT22;40085;53.004;6.770;2023-11-22T04:25:36;1.40;99.90
54178;DHT22;40085;53.004;6.770;2023-11-22T04:28:03;1.30;99.90
54178;DHT22;40085;53.004;6.770;2023-11-22T04:30:28;1.30;99.90
54178;DHT22;40085;53.004;6.770;2023-11-22T04:32:54;1.30;99.90
54178;DHT22;40085;53.004;6.770;2023-11-22T04:35:20;1.30;99.90
54178;DHT22;40085;53.004;6.770;2023-11-22T04:37:45;1.30;99.90
54178;DHT22;40085;53.004;6.770;2023-11-22T04:40:12;1.20;99.90
54178;DHT22;40085;53.004;6.770;2023-11-22T04:42:40;1.20;99.90
54178;DHT22;40085;53.004;6.770;2023-11-22T04:45:06;1.20;99.90
54178;DHT22;40085;53.004;6.770;2023-11-22T06:08:05;1.30;99.90
54178;DHT22;40085;53.004;6.770;2023-11-22T06:39:44;1.30;99.90
54178;DHT22;40085;53.004;6.770;2023-11-22T06:42:09;1.30;99.90
54178;DHT22;40085;53.004;6.770;2023-11-22T06:44:36;1.20;99.90
54178;DHT22;40085;53.004;6.770;2023-11-22T07:01:38;1.30;99.90
54178;DHT22;40085;53.004;6.770;2023-11-22T07:06:32;1.30;99.90
54178;DHT22;40085;53.004;6.770;2023-11-22T07:13:51;1.30;99.90
54178;DHT22;40085;53.004;6.770;2023-11-22T07:18:45;1.60;99.90
54178;DHT22;40085;53.004;6.770;2023-11-22T07:26:03;1.50;99.90
54178;DHT22;40085;53.004;6.770;2023-11-22T07:28:31;1.70;99.90
54178;DHT22;40085;53.004;6.770;2023-11-22T07:30:57;1.60;99.90
54178;DHT22;40085;53.004;6.770;2023-11-22T07:33:23;1.60;99.90
54178;DHT22;40085;53.004;6.770;2023-11-22T07:35:51;1.70;99.90
54178;DHT22;40085;53.004;6.770;2023-11-22T07:38:17;1.80;99.90
54178;DHT22;40085;53.004;6.770;2023-11-22T07:40:43;1.80;99.90
54178;DHT22;40085;53.004;6.770;2023-11-22T07:43:08;1.80;99.90
54178;DHT22;40085;53.004;6.770;2023-11-22T07:45:34;1.80;99.90
54178;DHT22;40085;53.004;6.770;2023-11-22T07:48:00;1.80;99.90
54178;DHT22;40085;53.004;6.770;2023-11-22T07:50:26;1.80;99.90
54178;DHT22;40085;53.004;6.770;2023-11-22T07:52:52;1.90;99.90
54178;DHT22;40085;53.004;6.770;2023-11-22T07:55:18;1.90;99.90
54178;DHT22;40085;53.004;6.770;2023-11-22T07:57:44;2.00;99.90
54178;DHT22;40085;53.004;6.770;2023-11-22T08:00:11;2.00;99.90
54178;DHT22;40085;53.004;6.770;2023-11-22T08:02:37;2.10;99.90
54178;DHT22;40085;53.004;6.770;2023-11-22T08:05:07;2.00;99.90
54178;DHT22;40085;53.004;6.770;2023-11-22T08:07:35;2.10;99.90
54178;DHT22;40085;53.004;6.770;2023-11-22T08:10:05;2.20;99.90
54178;DHT22;40085;53.004;6.770;2023-11-22T08:12:35;2.40;99.90
54178;DHT22;40085;53.004;6.770;2023-11-22T08:15:03;2.30;99.90
54178;DHT22;40085;53.004;6.770;2023-11-22T08:17:29;2.20;99.90
54178;DHT22;40085;53.004;6.770;2023-11-22T08:19:58;2.30;99.90
54178;DHT22;40085;53.004;6.770;2023-11-22T08:22:24;2.40;99.90
54178;DHT22;40085;53.004;6.770;2023-11-22T08:24:53;2.50;99.90
54178;DHT22;40085;53.004;6.770;2023-11-22T08:27:21;2.40;99.90
54178;DHT22;40085;53.004;6.770;2023-11-22T08:29:46;2.00;99.90
54178;DHT22;40085;53.004;6.770;2023-11-22T08:32:13;2.40;99.90
54178;DHT22;40085;53.004;6.770;2023-11-22T08:34:39;2.50;99.90
54178;DHT22;40085;53.004;6.770;2023-11-22T09:20:58;3.40;99.90
54178;DHT22;40085;53.004;6.770;2023-11-22T09:23:23;3.40;99.90
54178;DHT22;40085;53.004;6.770;2023-11-22T09:25:51;3.40;99.90
54178;DHT22;40085;53.004;6.770;2023-11-22T09:28:17;3.40;99.90
54178;DHT22;40085;53.004;6.770;2023-11-22T09:30:45;3.40;99.90
54178;DHT22;40085;53.004;6.770;2023-11-22T09:33:17;3.40;99.90
54178;DHT22;40085;53.004;6.770;2023-11-22T09:35:45;3.50;99.90
54178;DHT22;40085;53.004;6.770;2023-11-22T09:38:11;3.50;99.90
54178;DHT22;40085;53.004;6.770;2023-11-22T09:40:48;3.50;99.90
54178;DHT22;40085;53.004;6.770;2023-11-22T09:43:15;3.50;99.90
54178;DHT22;40085;53.004;6.770;2023-11-22T09:45:48;3.50;99.90
54178;DHT22;40085;53.004;6.770;2023-11-22T09:48:21;3.50;99.90
54178;DHT22;40085;53.004;6.770;2023-11-22T09:50:56;3.50;99.90
54178;DHT22;40085;53.004;6.770;2023-11-22T09:53:32;3.60;99.90
54178;DHT22;40085;53.004;6.770;2023-11-22T09:56:00;3.60;99.90
54178;DHT22;40085;53.004;6.770;2023-11-22T09:58:30;3.50;99.90
54178;DHT22;40085;53.004;6.770;2023-11-22T10:00:56;3.60;99.90
54178;DHT22;40085;53.004;6.770;2023-11-22T10:03:23;3.60;99.90
54178;DHT22;40085;53.004;6.770;2023-11-22T10:05:49;3.60;99.90
54178;DHT22;40085;53.004;6.770;2023-11-22T10:08:17;3.60;99.90
54178;DHT22;40085;53.004;6.770;2023-11-22T10:10:44;3.60;99.90
54178;DHT22;40085;53.004;6.770;2023-11-22T10:13:13;3.70;99.90
54178;DHT22;40085;53.004;6.770;2023-11-22T10:15:38;3.60;99.90
54178;DHT22;40085;53.004;6.770;2023-11-22T10:18:04;3.60;99.90
54178;DHT22;40085;53.004;6.770;2023-11-22T10:20:42;3.60;99.90
54178;DHT22;40085;53.004;6.770;2023-11-22T10:23:15;3.70;99.90
54178;DHT22;40085;53.004;6.770;2023-11-22T10:25:44;3.70;99.90
54178;DHT22;40085;53.004;6.770;2023-11-22T10:28:11;3.80;99.90
54178;DHT22;40085;53.004;6.770;2023-11-22T10:30:38;3.80;99.90
54178;DHT22;40085;53.004;6.770;2023-11-22T10:33:06;3.80;99.90
54178;DHT22;40085;53.004;6.770;2023-11-22T10:35:31;3.80;99.90
54178;DHT22;40085;53.004;6.770;2023-11-22T10:37:59;3.90;99.90
54178;DHT22;40085;53.004;6.770;2023-11-22T10:40:28;3.90;99.90
54178;DHT22;40085;53.004;6.770;2023-11-22T10:42:56;3.90;99.90
54178;DHT22;40085;53.004;6.770;2023-11-22T10:45:23;4.00;99.90
54178;DHT22;40085;53.004;6.770;2023-11-22T10:47:49;4.00;99.90
54178;DHT22;40085;53.004;6.770;2023-11-22T10:50:15;4.00;99.90
54178;DHT22;40085;53.004;6.770;2023-11-22T10:52:42;4.00;99.90
54178;DHT22;40085;53.004;6.770;2023-11-22T10:55:12;4.00;99.90
54178;DHT22;40085;53.004;6.770;2023-11-22T10:57:44;4.00;99.90
54178;DHT22;40085;53.004;6.770;2023-11-22T11:00:15;4.00;99.90
54178;DHT22;40085;53.004;6.770;2023-11-22T11:02:45;4.00;99.90
54178;DHT22;40085;53.004;6.770;2023-11-22T11:05:16;3.90;99.90
54178;DHT22;40085;53.004;6.770;2023-11-22T11:07:49;4.00;99.90
54178;DHT22;40085;53.004;6.770;2023-11-22T11:10:20;4.00;99.90
54178;DHT22;40085;53.004;6.770;2023-11-22T11:12:47;4.10;99.90
54178;DHT22;40085;53.004;6.770;2023-11-22T11:15:14;4.20;99.90
54178;DHT22;40085;53.004;6.770;2023-11-22T11:17:43;4.30;99.90
54178;DHT22;40085;53.004;6.770;2023-11-22T11:20:10;4.40;99.90
54178;DHT22;40085;53.004;6.770;2023-11-22T11:22:39;4.40;99.90
54178;DHT22;40085;53.004;6.770;2023-11-22T11:25:05;4.50;99.90
54178;DHT22;40085;53.004;6.770;2023-11-22T11:27:34;4.60;99.90
54178;DHT22;40085;53.004;6.770;2023-11-22T11:32:57;4.90;99.90
54178;DHT22;40085;53.004;6.770;2023-11-22T11:35:44;5.20;99.90
54178;DHT22;40085;53.004;6.770;2023-11-22T11:48:18;6.40;99.90
54178;DHT22;40085;53.004;6.770;2023-11-22T11:50:46;6.40;99.90
54178;DHT22;40085;53.004;6.770;2023-11-22T11:53:12;6.30;99.90
54178;DHT22;40085;53.004;6.770;2023-11-22T11:55:38;6.10;99.90
54178;DHT22;40085;53.004;6.770;2023-11-22T11:58:05;6.10;99.90
54178;DHT22;40085;53.004;6.770;2023-11-22T12:00:33;6.20;99.90
54178;DHT22;40085;53.004;6.770;2023-11-22T12:02:58;6.30;99.90
54178;DHT22;40085;53.004;6.770;2023-11-22T12:05:24;6.40;99.90
54178;DHT22;40085;53.004;6.770;2023-11-22T12:07:50;6.40;99.90
54178;DHT22;40085;53.004;6.770;2023-11-22T12:10:16;6.20;99.90
54178;DHT22;40085;53.004;6.770;2023-11-22T12:12:43;6.10;99.90
54178;DHT22;40085;53.004;6.770;2023-11-22T12:15:10;5.90;99.90
54178;DHT22;40085;53.004;6.770;2023-11-22T12:17:36;5.80;99.90
54178;DHT22;40085;53.004;6.770;2023-11-22T12:20:15;5.70;99.90
54178;DHT22;40085;53.004;6.770;2023-11-22T12:22:46;5.60;99.90
54178;DHT22;40085;53.004;6.770;2023-11-22T12:25:11;5.50;99.90
54178;DHT22;40085;53.004;6.770;2023-11-22T12:27:39;5.40;99.90
54178;DHT22;40085;53.004;6.770;2023-11-22T12:30:06;5.40;99.90
54178;DHT22;40085;53.004;6.770;2023-11-22T12:32:32;5.30;99.90
54178;DHT22;40085;53.004;6.770;2023-11-22T12:34:58;5.30;99.90
54178;DHT22;40085;53.004;6.770;2023-11-22T12:37:24;5.30;99.90
54178;DHT22;40085;53.004;6.770;2023-11-22T12:39:50;5.20;99.90
54178;DHT22;40085;53.004;6.770;2023-11-22T12:42:18;5.20;99.90
54178;DHT22;40085;53.004;6.770;2023-11-22T12:44:48;5.20;99.90
54178;DHT22;40085;53.004;6.770;2023-11-22T12:47:14;5.10;99.90
54178;DHT22;40085;53.004;6.770;2023-11-22T12:49:44;5.10;99.90
54178;DHT22;40085;53.004;6.770;2023-11-22T12:52:15;5.10;99.90
54178;DHT22;40085;53.004;6.770;2023-11-22T12:54:40;5.10;99.90
54178;DHT22;40085;53.004;6.770;2023-11-22T12:57:11;5.10;99.90
54178;DHT22;40085;53.004;6.770;2023-11-22T12:59:38;5.00;99.90
54178;DHT22;40085;53.004;6.770;2023-11-22T13:02:05;5.00;99.90
54178;DHT22;40085;53.004;6.770;2023-11-22T13:04:32;5.00;99.90
54178;DHT22;40085;53.004;6.770;2023-11-22T13:06:59;5.00;99.90
54178;DHT22;40085;53.004;6.770;2023-11-22T13:09:25;5.00;99.90
54178;DHT22;40085;53.004;6.770;2023-11-22T13:11:51;5.00;99.90
54178;DHT22;40085;53.004;6.770;2023-11-22T13:14:17;5.00;99.90
54178;DHT22;40085;53.004;6.770;2023-11-22T13:16:44;5.00;99.90
54178;DHT22;40085;53.004;6.770;2023-11-22T13:19:10;5.00;99.90
54178;DHT22;40085;53.004;6.770;2023-11-22T13:21:36;5.00;99.90
54178;DHT22;40085;53.004;6.770;2023-11-22T13:24:02;5.00;99.90
54178;DHT22;40085;53.004;6.770;2023-11-22T13:26:29;5.00;99.90
54178;DHT22;40085;53.004;6.770;2023-11-22T13:28:55;5.00;99.90
54178;DHT22;40085;53.004;6.770;2023-11-22T13:31:21;5.00;99.90
54178;DHT22;40085;53.004;6.770;2023-11-22T13:33:47;5.00;99.90
54178;DHT22;40085;53.004;6.770;2023-11-22T13:36:13;5.00;99.90
54178;DHT22;40085;53.004;6.770;2023-11-22T13:38:40;5.00;99.90
54178;DHT22;40085;53.004;6.770;2023-11-22T13:41:05;5.00;99.90
54178;DHT22;40085;53.004;6.770;2023-11-22T13:43:31;5.00;99.90
54178;DHT22;40085;53.004;6.770;2023-11-22T13:45:58;5.00;99.90
54178;DHT22;40085;53.004;6.770;2023-11-22T13:48:25;4.90;99.90
54178;DHT22;40085;53.004;6.770;2023-11-22T13:50:51;4.90;99.90
54178;DHT22;40085;53.004;6.770;2023-11-22T13:53:16;4.90;99.90
54178;DHT22;40085;53.004;6.770;2023-11-22T13:55:47;4.90;99.90
54178;DHT22;40085;53.004;6.770;2023-11-22T13:58:13;5.00;99.90
54178;DHT22;40085;53.004;6.770;2023-11-22T14:00:39;5.00;99.90
54178;DHT22;40085;53.004;6.770;2023-11-22T14:03:04;5.00;99.90
54178;DHT22;40085;53.004;6.770;2023-11-22T14:05:34;4.90;99.90
54178;DHT22;40085;53.004;6.770;2023-11-22T14:08:02;4.90;99.90
54178;DHT22;40085;53.004;6.770;2023-11-22T14:10:27;4.90;99.90
54178;DHT22;40085;53.004;6.770;2023-11-22T14:12:54;4.90;99.90
54178;DHT22;40085;53.004;6.770;2023-11-22T14:15:19;4.90;99.90
54178;DHT22;40085;53.004;6.770;2023-11-22T14:17:45;4.90;99.90
54178;DHT22;40085;53.004;6.770;2023-11-22T14:20:15;4.90;99.90
54178;DHT22;40085;53.004;6.770;2023-11-22T14:22:42;4.90;99.90
54178;DHT22;40085;53.004;6.770;2023-11-22T14:25:09;4.80;99.90
54178;DHT22;40085;53.004;6.770;2023-11-22T14:27:40;4.90;99.90
54178;DHT22;40085;53.004;6.770;2023-11-22T14:30:07;4.80;99.90
54178;DHT22;40085;53.004;6.770;2023-11-22T14:32:34;4.80;99.90
54178;DHT22;40085;53.004;6.770;2023-11-22T14:35:01;4.80;99.90
54178;DHT22;40085;53.004;6.770;2023-11-22T14:37:28;4.80;99.90
54178;DHT22;40085;53.004;6.770;2023-11-22T14:39:54;4.80;99.90
54178;DHT22;40085;53.004;6.770;2023-11-22T14:42:20;4.70;99.90
54178;DHT22;40085;53.004;6.770;2023-11-22T14:44:45;4.70;99.90
54178;DHT22;40085;53.004;6.770;2023-11-22T14:47:11;4.70;99.90
54178;DHT22;40085;53.004;6.770;2023-11-22T14:49:51;4.70;99.90
54178;DHT22;40085;53.004;6.770;2023-11-22T14:52:17;4.70;99.90
54178;DHT22;40085;53.004;6.770;2023-11-22T14:54:43;4.70;99.90
54178;DHT22;40085;53.004;6.770;2023-11-22T14:57:12;4.70;99.90
54178;DHT22;40085;53.004;6.770;2023-11-22T14:59:40;4.70;99.90
54178;DHT22;40085;53.004;6.770;2023-11-22T15:02:07;4.60;99.90
54178;DHT22;40085;53.004;6.770;2023-11-22T15:04:39;4.60;99.90
54178;DHT22;40085;53.004;6.770;2023-11-22T15:07:05;4.60;99.90
54178;DHT22;40085;53.004;6.770;2023-11-22T15:09:32;5.70;99.90
54178;DHT22;40085;53.004;6.770;2023-11-22T15:11:59;4.60;99.90
54178;DHT22;40085;53.004;6.770;2023-11-22T15:14:25;4.60;99.90
54178;DHT22;40085;53.004;6.770;2023-11-22T15:16:52;4.60;99.90
54178;DHT22;40085;53.004;6.770;2023-11-22T15:19:17;4.60;99.90
54178;DHT22;40085;53.004;6.770;2023-11-22T15:21:46;4.60;99.90
54178;DHT22;40085;53.004;6.770;2023-11-22T15:24:12;4.60;99.90
54178;DHT22;40085;53.004;6.770;2023-11-22T15:26:38;4.60;99.90
54178;DHT22;40085;53.004;6.770;2023-11-22T15:29:04;4.60;99.90
54178;DHT22;40085;53.004;6.770;2023-11-22T15:31:31;4.60;99.90
54178;DHT22;40085;53.004;6.770;2023-11-22T15:33:57;4.60;99.90
54178;DHT22;40085;53.004;6.770;2023-11-22T15:36:23;4.60;99.90
54178;DHT22;40085;53.004;6.770;2023-11-22T15:38:48;4.60;99.90
54178;DHT22;40085;53.004;6.770;2023-11-22T15:41:14;4.60;99.90
54178;DHT22;40085;53.004;6.770;2023-11-22T15:43:40;4.60;99.90
54178;DHT22;40085;53.004;6.770;2023-11-22T15:46:10;4.60;99.90
54178;DHT22;40085;53.004;6.770;2023-11-22T15:48:36;4.60;99.90
54178;DHT22;40085;53.004;6.770;2023-11-22T15:51:01;4.70;99.90
54178;DHT22;40085;53.004;6.770;2023-11-22T15:53:27;4.70;99.90
54178;DHT22;40085;53.004;6.770;2023-11-22T15:55:53;4.70;99.90
54178;DHT22;40085;53.004;6.770;2023-11-22T15:58:18;4.70;99.90
54178;DHT22;40085;53.004;6.770;2023-11-22T16:00:44;4.70;99.90
54178;DHT22;40085;53.004;6.770;2023-11-22T16:03:10;4.70;99.90
54178;DHT22;40085;53.004;6.770;2023-11-22T16:05:43;4.70;99.90
54178;DHT22;40085;53.004;6.770;2023-11-22T16:08:10;4.70;99.90
54178;DHT22;40085;53.004;6.770;2023-11-22T16:10:36;4.70;99.90
54178;DHT22;40085;53.004;6.770;2023-11-22T16:13:02;4.70;99.90
54178;DHT22;40085;53.004;6.770;2023-11-22T16:15:27;4.70;99.90
54178;DHT22;40085;53.004;6.770;2023-11-22T16:17:53;4.70;99.90
54178;DHT22;40085;53.004;6.770;2023-11-22T16:20:21;4.80;99.90
54178;DHT22;40085;53.004;6.770;2023-11-22T16:22:47;4.80;99.90
54178;DHT22;40085;53.004;6.770;2023-11-22T16:25:15;4.80;99.90
54178;DHT22;40085;53.004;6.770;2023-11-22T16:27:43;4.80;99.90
54178;DHT22;40085;53.004;6.770;2023-11-22T16:30:09;4.80;99.90
54178;DHT22;40085;53.004;6.770;2023-11-22T16:32:35;4.80;99.90
54178;DHT22;40085;53.004;6.770;2023-11-22T16:35:03;4.80;99.90
54178;DHT22;40085;53.004;6.770;2023-11-22T16:37:29;4.90;99.90
54178;DHT22;40085;53.004;6.770;2023-11-22T16:39:55;4.80;99.90
54178;DHT22;40085;53.004;6.770;2023-11-22T16:42:21;4.90;99.90
54178;DHT22;40085;53.004;6.770;2023-11-22T16:44:48;4.90;99.90
54178;DHT22;40085;53.004;6.770;2023-11-22T16:47:14;4.90;99.90
54178;DHT22;40085;53.004;6.770;2023-11-22T16:49:45;5.00;99.90
54178;DHT22;40085;53.004;6.770;2023-11-22T16:52:11;5.00;99.90
54178;DHT22;40085;53.004;6.770;2023-11-22T16:54:39;5.00;99.90
54178;DHT22;40085;53.004;6.770;2023-11-22T16:57:06;5.10;99.90
54178;DHT22;40085;53.004;6.770;2023-11-22T16:59:31;5.10;99.90
54178;DHT22;40085;53.004;6.770;2023-11-22T17:01:57;5.10;99.90
54178;DHT22;40085;53.004;6.770;2023-11-22T17:04:24;5.10;99.90
54178;DHT22;40085;53.004;6.770;2023-11-22T17:06:50;5.10;99.90
54178;DHT22;40085;53.004;6.770;2023-11-22T17:09:15;5.10;99.90
54178;DHT22;40085;53.004;6.770;2023-11-22T17:11:43;5.10;99.90
54178;DHT22;40085;53.004;6.770;2023-11-22T17:14:09;5.10;99.90
54178;DHT22;40085;53.004;6.770;2023-11-22T17:16:34;5.10;99.90
54178;DHT22;40085;53.004;6.770;2023-11-22T17:19:00;5.10;99.90
54178;DHT22;40085;53.004;6.770;2023-11-22T17:21:26;5.10;99.90
54178;DHT22;40085;53.004;6.770;2023-11-22T17:23:51;5.10;99.90
54178;DHT22;40085;53.004;6.770;2023-11-22T17:26:17;5.70;99.90
54178;DHT22;40085;53.004;6.770;2023-11-22T17:28:42;5.10;99.90
54178;DHT22;40085;53.004;6.770;2023-11-22T17:31:08;5.20;99.90
54178;DHT22;40085;53.004;6.770;2023-11-22T17:33:33;5.20;99.90
54178;DHT22;40085;53.004;6.770;2023-11-22T17:35:59;5.20;99.90
54178;DHT22;40085;53.004;6.770;2023-11-22T17:38:25;5.20;99.90
54178;DHT22;40085;53.004;6.770;2023-11-22T17:40:51;5.30;99.90
54178;DHT22;40085;53.004;6.770;2023-11-22T17:43:17;5.30;99.90
54178;DHT22;40085;53.004;6.770;2023-11-22T17:45:43;5.30;99.90
54178;DHT22;40085;53.004;6.770;2023-11-22T17:48:09;5.40;99.90
54178;DHT22;40085;53.004;6.770;2023-11-22T17:50:35;5.40;99.90
54178;DHT22;40085;53.004;6.770;2023-11-22T17:53:01;5.40;99.90
54178;DHT22;40085;53.004;6.770;2023-11-22T17:55:27;5.40;99.90
54178;DHT22;40085;53.004;6.770;2023-11-22T17:57:52;5.40;99.90
54178;DHT22;40085;53.004;6.770;2023-11-22T18:00:18;5.50;99.90
54178;DHT22;40085;53.004;6.770;2023-11-22T18:02:44;5.50;99.90
54178;DHT22;40085;53.004;6.770;2023-11-22T18:05:09;5.50;99.90
54178;DHT22;40085;53.004;6.770;2023-11-22T18:07:35;5.60;99.90
54178;DHT22;40085;53.004;6.770;2023-11-22T18:10:03;5.60;99.90
54178;DHT22;40085;53.004;6.770;2023-11-22T18:12:30;5.60;99.90
54178;DHT22;40085;53.004;6.770;2023-11-22T18:14:56;6.20;99.90
54178;DHT22;40085;53.004;6.770;2023-11-22T18:17:22;5.70;99.90
54178;DHT22;40085;53.004;6.770;2023-11-22T18:19:49;5.70;99.90
54178;DHT22;40085;53.004;6.770;2023-11-22T18:22:14;6.20;99.90
54178;DHT22;40085;53.004;6.770;2023-11-22T18:24:40;5.70;99.90
54178;DHT22;40085;53.004;6.770;2023-11-22T18:27:06;5.80;99.90
54178;DHT22;40085;53.004;6.770;2023-11-22T18:29:31;5.80;99.90
54178;DHT22;40085;53.004;6.770;2023-11-22T18:31:57;6.20;99.90
54178;DHT22;40085;53.004;6.770;2023-11-22T18:34:24;5.90;99.90
54178;DHT22;40085;53.004;6.770;2023-11-22T18:36:56;5.90;99.90
54178;DHT22;40085;53.004;6.770;2023-11-22T18:39:21;5.90;99.90
54178;DHT22;40085;53.004;6.770;2023-11-22T18:41:47;5.90;99.90
54178;DHT22;40085;53.004;6.770;2023-11-22T18:44:13;6.00;99.90
54178;DHT22;40085;53.004;6.770;2023-11-22T18:46:38;6.00;99.90
54178;DHT22;40085;53.004;6.770;2023-11-22T18:49:04;6.00;99.90
54178;DHT22;40085;53.004;6.770;2023-11-22T18:51:30;6.00;99.90
54178;DHT22;40085;53.004;6.770;2023-11-22T18:53:56;6.00;99.90
54178;DHT22;40085;53.004;6.770;2023-11-22T18:56:22;6.10;99.90
54178;DHT22;40085;53.004;6.770;2023-11-22T18:58:47;6.10;99.90
54178;DHT22;40085;53.004;6.770;2023-11-22T19:01:13;6.10;99.90
54178;DHT22;40085;53.004;6.770;2023-11-22T19:03:39;6.10;99.90
54178;DHT22;40085;53.004;6.770;2023-11-22T19:06:05;6.10;99.90
54178;DHT22;40085;53.004;6.770;2023-11-22T19:08:32;6.10;99.90
54178;DHT22;40085;53.004;6.770;2023-11-22T19:10:57;6.10;99.90
54178;DHT22;40085;53.004;6.770;2023-11-22T19:13:23;6.10;99.90
54178;DHT22;40085;53.004;6.770;2023-11-22T19:15:49;6.10;99.90
54178;DHT22;40085;53.004;6.770;2023-11-22T19:18:15;6.30;99.90
54178;DHT22;40085;53.004;6.770;2023-11-22T19:20:41;6.10;99.90
54178;DHT22;40085;53.004;6.770;2023-11-22T19:23:08;6.20;99.90
54178;DHT22;40085;53.004;6.770;2023-11-22T19:25:34;6.20;99.90
54178;DHT22;40085;53.004;6.770;2023-11-22T19:28:02;6.20;99.90
54178;DHT22;40085;53.004;6.770;2023-11-22T19:30:33;6.30;99.90
54178;DHT22;40085;53.004;6.770;2023-11-22T19:32:59;6.30;99.90
54178;DHT22;40085;53.004;6.770;2023-11-22T19:35:28;7.10;99.90
54178;DHT22;40085;53.004;6.770;2023-11-22T19:37:54;6.40;99.90
54178;DHT22;40085;53.004;6.770;2023-11-22T19:40:20;6.40;99.90
54178;DHT22;40085;53.004;6.770;2023-11-22T19:42:45;6.40;99.90
54178;DHT22;40085;53.004;6.770;2023-11-22T19:45:11;6.60;99.90
54178;DHT22;40085;53.004;6.770;2023-11-22T19:47:39;6.40;99.90
54178;DHT22;40085;53.004;6.770;2023-11-22T19:50:07;6.40;99.90